createdAt,value
2018-05-21T00:00:41.141Z,50.80
2018-05-21T00:02:42.880Z,51.09
2018-05-21T00:04:44.731Z,50.87
2018-05-21T00:06:46.531Z,51.25
2018-05-21T00:08:48.337Z,51.06
2018-05-21T00:10:49.811Z,51.35
2018-05-21T00:12:51.289Z,51.54
2018-05-21T00:14:52.883Z,51.83
2018-05-21T00:16:54.418Z,52.12
2018-05-21T00:18:56.153Z,52.12
2018-05-21T00:20:57.888Z,52.12
2018-05-21T00:22:59.771Z,52.00
2018-05-21T00:25:01.581Z,52.19
2018-05-21T00:27:03.433Z,52.48
2018-05-21T00:29:05.177Z,52.48
2018-05-21T00:31:07.067Z,52.28
2018-05-21T00:33:08.863Z,51.90
2018-05-21T00:35:10.650Z,52.00
2018-05-21T00:37:12.164Z,52.28
2018-05-21T00:39:13.900Z,53.24
2018-05-21T00:41:15.697Z,53.15
2018-05-21T00:43:17.527Z,53.63
2018-05-21T00:45:19.212Z,53.34
2018-05-21T00:47:21.035Z,53.24
2018-05-21T00:49:22.736Z,53.53
2018-05-21T00:51:24.581Z,53.44
2018-05-21T00:53:26.278Z,53.34
2018-05-21T00:55:28.055Z,54.01
2018-05-21T00:57:29.870Z,53.72
2018-05-21T00:59:31.698Z,54.11
2018-05-21T01:01:33.474Z,53.34
2018-05-21T01:03:35.236Z,53.24
2018-05-21T01:05:37.000Z,53.12
2018-05-21T01:07:38.715Z,53.79
2018-05-21T01:09:40.552Z,54.17
2018-05-21T01:11:42.213Z,54.27
2018-05-21T01:13:43.952Z,54.66
2018-05-21T01:15:45.724Z,54.17
2018-05-21T01:17:47.532Z,54.17
2018-05-21T01:19:49.005Z,53.79
2018-05-21T01:21:50.687Z,53.99
2018-05-21T01:23:52.475Z,54.17
2018-05-21T01:25:54.214Z,54.46
2018-05-21T01:27:55.940Z,55.52
2018-05-21T01:29:57.674Z,55.04
2018-05-21T01:31:59.442Z,55.33
2018-05-21T01:34:01.118Z,55.42
2018-05-21T01:36:02.878Z,55.13
2018-05-21T01:38:04.523Z,54.66
2018-05-21T01:40:06.024Z,54.91
2018-05-21T01:42:07.527Z,55.01
2018-05-21T01:44:09.024Z,55.58
2018-05-21T01:46:10.736Z,55.49
2018-05-21T01:48:12.542Z,55.21
2018-05-21T01:50:14.274Z,55.49
2018-05-21T01:52:16.059Z,55.78
2018-05-21T01:54:17.751Z,55.40
2018-05-21T01:56:19.590Z,55.58
2018-05-21T01:58:21.374Z,55.78
2018-05-21T02:00:23.212Z,55.40
2018-05-21T02:02:24.928Z,55.78
2018-05-21T02:04:26.751Z,55.97
2018-05-21T02:06:28.628Z,56.32
2018-05-21T02:08:30.424Z,56.42
2018-05-21T02:10:32.092Z,56.32
2018-05-21T02:12:33.989Z,56.52
2018-05-21T02:14:35.799Z,56.99
2018-05-21T02:16:37.587Z,56.99
2018-05-21T02:18:39.180Z,57.09
2018-05-21T02:20:40.732Z,57.19
2018-05-21T02:22:42.357Z,56.81
2018-05-21T02:24:44.213Z,56.90
2018-05-21T02:26:45.993Z,56.61
2018-05-21T02:28:47.804Z,57.57
2018-05-21T02:30:49.645Z,57.57
2018-05-21T02:32:51.393Z,57.67
2018-05-21T02:34:53.251Z,57.57
2018-05-21T02:36:55.138Z,57.38
2018-05-21T02:38:56.844Z,57.09
2018-05-21T02:40:58.570Z,57.48
2018-05-21T02:43:00.288Z,57.48
2018-05-21T02:45:01.991Z,57.67
2018-05-21T02:47:03.776Z,57.57
2018-05-21T02:49:05.416Z,57.73
2018-05-21T02:51:07.227Z,57.57
2018-05-21T02:53:09.024Z,57.67
2018-05-21T02:55:10.823Z,57.57
2018-05-21T02:57:12.556Z,57.67
2018-05-21T02:59:14.336Z,57.45
2018-05-21T03:01:15.986Z,57.73
2018-05-21T03:03:17.765Z,57.92
2018-05-21T03:05:19.571Z,57.73
2018-05-21T03:07:21.325Z,57.54
2018-05-21T03:09:23.082Z,57.06
2018-05-21T03:11:24.942Z,57.16
2018-05-21T03:13:26.655Z,56.97
2018-05-21T03:15:28.472Z,56.97
2018-05-21T03:17:30.193Z,57.45
2018-05-21T03:19:32.023Z,57.73
2018-05-21T03:21:33.743Z,57.35
2018-05-21T03:23:35.590Z,57.06
2018-05-21T03:25:37.391Z,57.54
2018-05-21T03:27:39.297Z,57.73
2018-05-21T03:29:40.980Z,57.92
2018-05-21T03:31:42.787Z,57.45
2018-05-21T03:33:44.435Z,57.83
2018-05-21T03:35:46.252Z,57.73
2018-05-21T03:37:47.995Z,58.31
2018-05-21T03:39:49.777Z,57.83
2018-05-21T03:41:51.604Z,58.31
2018-05-21T03:43:53.230Z,57.83
2018-05-21T03:45:54.746Z,58.31
2018-05-21T03:47:56.395Z,57.73
2018-05-21T03:49:58.153Z,57.83
2018-05-21T03:51:59.968Z,57.35
2018-05-21T03:54:01.529Z,58.50
2018-05-21T03:56:03.276Z,58.50
2018-05-21T03:58:05.069Z,58.31
2018-05-21T04:00:06.721Z,58.98
2018-05-21T04:02:08.460Z,58.31
2018-05-21T04:04:10.189Z,59.45
2018-05-21T04:06:11.837Z,58.40
2018-05-21T04:08:13.528Z,58.88
2018-05-21T04:10:15.159Z,59.45
2018-05-21T04:12:16.961Z,59.17
2018-05-21T04:14:18.752Z,59.17
2018-05-21T04:16:20.607Z,59.27
2018-05-21T04:18:22.344Z,59.45
2018-05-21T04:20:24.149Z,59.75
2018-05-21T04:22:25.923Z,59.55
2018-05-21T04:24:27.752Z,59.84
2018-05-21T04:26:29.503Z,59.84
2018-05-21T04:28:31.320Z,60.22
2018-05-21T04:30:33.015Z,60.80
2018-05-21T04:32:34.720Z,60.13
2018-05-21T04:34:36.449Z,60.70
2018-05-21T04:36:38.273Z,60.80
2018-05-21T04:38:40.094Z,61.28
2018-05-21T04:40:41.832Z,61.66
2018-05-21T04:42:43.628Z,60.89
2018-05-21T04:44:45.305Z,61.37
2018-05-21T04:46:47.098Z,61.85
2018-05-21T04:48:48.809Z,62.33
2018-05-21T04:50:50.558Z,62.71
2018-05-21T04:52:53.194Z,62.43
2018-05-21T04:54:54.947Z,63.00
2018-05-21T04:56:56.626Z,62.90
2018-05-21T04:58:58.428Z,63.29
2018-05-21T05:01:00.141Z,63.29
2018-05-21T05:03:01.900Z,63.57
2018-05-21T05:05:03.711Z,62.81
2018-05-21T05:07:05.368Z,62.04
2018-05-21T05:09:06.854Z,63.19
2018-05-21T05:11:08.391Z,63.13
2018-05-21T05:13:09.995Z,62.46
2018-05-21T05:15:11.464Z,62.65
2018-05-21T05:17:12.949Z,61.31
2018-05-21T05:19:14.432Z,60.83
2018-05-21T05:21:15.946Z,60.06
2018-05-21T05:23:17.442Z,59.77
2018-05-21T05:25:18.967Z,60.54
2018-05-21T05:27:20.684Z,59.11
2018-05-21T05:29:22.549Z,59.61
2018-05-21T05:31:24.087Z,59.33
2018-05-21T05:33:25.816Z,58.84
2018-05-21T05:35:27.222Z,58.37
2018-05-21T05:37:28.739Z,56.09
2018-05-21T05:39:30.176Z,55.57
2018-05-21T05:41:31.606Z,52.14
2018-05-21T05:43:33.057Z,52.43
2018-05-21T05:45:34.482Z,52.24
2018-05-21T05:47:35.909Z,51.18
2018-05-21T05:49:37.375Z,50.27
2018-05-21T05:51:38.801Z,47.36
2018-05-21T05:53:40.230Z,43.65
2018-05-21T05:55:41.659Z,42.15
2018-05-21T05:57:43.089Z,41.86
2018-05-21T05:59:44.517Z,42.61
2018-05-21T06:01:45.947Z,42.71
2018-05-21T06:03:47.376Z,43.48
2018-05-21T06:05:48.809Z,42.90
2018-05-21T06:07:50.249Z,44.23
2018-05-21T06:09:53.523Z,44.83
2018-05-21T06:11:55.042Z,41.25
2018-05-21T06:13:56.478Z,38.45
2018-05-21T06:15:57.910Z,34.59
2018-05-21T06:17:59.343Z,35.09
2018-05-21T06:20:00.777Z,34.51
2018-05-21T06:22:02.215Z,33.26
2018-05-21T06:24:03.651Z,32.92
2018-05-21T06:26:05.086Z,32.13
2018-05-21T06:28:06.525Z,33.73
2018-05-21T06:30:07.955Z,36.20
2018-05-21T06:32:09.388Z,37.81
2018-05-21T06:34:11.015Z,39.24
2018-05-21T06:36:12.261Z,41.52
2018-05-21T06:38:13.696Z,41.91
2018-05-21T06:40:15.136Z,38.99
2018-05-21T06:42:16.571Z,36.58
2018-05-21T06:44:18.017Z,32.50
2018-05-21T06:46:19.445Z,28.86
2018-05-21T06:48:20.882Z,26.84
2018-05-21T06:50:22.435Z,25.99
2018-05-21T06:52:25.947Z,24.85
2018-05-21T06:54:27.390Z,23.60
2018-05-21T06:56:29.209Z,22.44
2018-05-21T06:58:30.755Z,23.03
2018-05-21T07:00:32.199Z,22.25
2018-05-21T07:02:33.635Z,21.27
2018-05-21T07:04:35.082Z,21.38
2018-05-21T07:06:36.664Z,21.99
2018-05-21T07:08:38.177Z,21.49
2018-05-21T07:10:39.627Z,21.11
2018-05-21T07:12:41.105Z,21.01
2018-05-21T07:14:42.569Z,20.72
2018-05-21T07:16:44.297Z,20.03
2018-05-21T07:18:46.154Z,21.97
2018-05-21T07:20:47.712Z,22.25
2018-05-21T07:22:49.460Z,23.02
2018-05-21T07:25:31.858Z,24.35
2018-05-21T07:27:33.293Z,26.10
2018-05-21T07:29:34.736Z,27.11
2018-05-21T07:31:36.200Z,28.43
2018-05-21T07:33:37.776Z,30.05
2018-05-21T07:35:39.220Z,32.81
2018-05-21T07:37:40.753Z,35.21
2018-05-21T07:39:42.822Z,36.82
2018-05-21T07:41:44.385Z,38.43
2018-05-21T07:43:45.978Z,40.65
2018-05-21T07:45:47.485Z,41.21
2018-05-21T07:47:49.131Z,41.19
2018-05-21T07:49:50.624Z,42.43
2018-05-21T07:51:52.146Z,42.43
2018-05-21T07:53:53.660Z,43.08
2018-05-21T07:55:55.204Z,43.85
2018-05-21T07:57:56.712Z,44.73
2018-05-21T07:59:58.310Z,44.60
2018-05-21T08:01:59.880Z,44.42
2018-05-21T08:04:01.495Z,45.67
2018-05-21T08:06:43.940Z,45.57
2018-05-21T08:08:45.385Z,44.70
2018-05-21T08:10:46.806Z,44.60
2018-05-21T08:12:48.332Z,46.44
2018-05-21T08:14:49.794Z,46.44
2018-05-21T08:16:51.267Z,46.64
2018-05-21T08:18:52.735Z,44.82
2018-05-21T08:20:54.227Z,44.92
2018-05-21T08:22:55.641Z,45.01
2018-05-21T08:24:57.433Z,47.33
2018-05-21T08:26:58.854Z,44.82
2018-05-21T08:29:00.287Z,44.73
2018-05-21T08:31:01.743Z,45.52
2018-05-21T08:33:03.160Z,44.56
2018-05-21T08:35:04.596Z,43.88
2018-05-21T08:37:06.031Z,45.74
2018-05-21T08:39:07.468Z,43.13
2018-05-21T08:41:08.909Z,42.76
2018-05-21T08:43:10.338Z,43.05
2018-05-21T08:45:11.778Z,42.20
2018-05-21T08:47:13.214Z,42.88
2018-05-21T08:49:14.653Z,42.30
2018-05-21T08:51:16.133Z,42.30
2018-05-21T08:53:17.569Z,41.72
2018-05-21T08:55:19.064Z,42.00
2018-05-21T08:57:20.445Z,41.52
2018-05-21T08:59:21.883Z,41.93
2018-05-21T09:01:23.358Z,40.77
2018-05-21T09:03:24.793Z,41.08
2018-05-21T09:05:26.235Z,41.37
2018-05-21T09:07:27.669Z,40.99
2018-05-21T09:09:29.152Z,40.01
2018-05-21T09:11:30.584Z,40.23
2018-05-21T09:13:32.053Z,38.37
2018-05-21T09:15:33.506Z,40.33
2018-05-21T09:17:34.915Z,39.94
2018-05-21T09:19:36.355Z,38.78
2018-05-21T09:21:37.796Z,40.25
2018-05-21T09:23:39.296Z,39.69
2018-05-21T09:25:40.766Z,39.39
2018-05-21T09:27:42.188Z,37.34
2018-05-21T09:29:43.642Z,37.63
2018-05-21T09:31:45.203Z,37.45
2018-05-21T09:33:46.940Z,38.04
2018-05-21T09:35:48.454Z,38.04
2018-05-21T09:37:50.347Z,37.16
2018-05-21T09:39:51.946Z,37.84
2018-05-21T09:41:53.840Z,38.04
2018-05-21T09:43:55.421Z,37.74
2018-05-21T09:45:56.973Z,36.77
2018-05-21T09:47:58.521Z,37.08
2018-05-21T09:50:00.162Z,35.82
2018-05-21T09:52:01.710Z,36.30
2018-05-21T09:54:03.226Z,36.50
2018-05-21T09:56:04.746Z,35.14
2018-05-21T09:58:06.477Z,35.63
2018-05-21T10:00:07.999Z,37.39
2018-05-21T10:02:09.542Z,34.87
2018-05-21T10:04:11.061Z,33.69
2018-05-21T10:06:12.651Z,33.49
2018-05-21T10:08:14.431Z,34.46
2018-05-21T10:10:16.024Z,35.24
2018-05-21T10:12:17.561Z,34.36
2018-05-21T10:14:19.156Z,36.32
2018-05-21T10:16:20.763Z,34.09
2018-05-21T10:18:22.311Z,34.48
2018-05-21T10:20:24.112Z,33.70
2018-05-21T10:22:25.652Z,33.12
2018-05-21T10:24:27.209Z,34.40
2018-05-21T10:27:09.652Z,34.30
2018-05-21T10:29:11.100Z,35.29
2018-05-21T10:31:12.765Z,34.70
2018-05-21T10:33:14.497Z,33.17
2018-05-21T10:35:16.035Z,31.79
2018-05-21T10:37:17.657Z,32.67
2018-05-21T10:39:19.083Z,33.14
2018-05-21T10:41:20.628Z,32.55
2018-05-21T10:43:22.149Z,32.96
2018-05-21T10:46:03.629Z,37.45
2018-05-21T10:48:05.058Z,32.57
2018-05-21T10:50:06.517Z,33.54
2018-05-21T10:52:07.999Z,33.15
2018-05-21T10:54:09.436Z,35.10
2018-05-21T10:56:51.865Z,32.08
2018-05-21T10:58:53.425Z,32.57
2018-05-21T11:00:55.428Z,35.39
2018-05-21T11:02:56.845Z,32.87
2018-05-21T11:04:58.270Z,32.87
2018-05-21T11:06:59.762Z,32.47
2018-05-21T11:09:01.223Z,33.93
2018-05-21T11:11:02.704Z,34.52
2018-05-21T11:13:04.749Z,34.61
2018-05-21T11:15:47.639Z,32.75
2018-05-21T11:17:49.159Z,32.94
2018-05-21T11:19:50.528Z,35.37
2018-05-21T11:21:52.345Z,33.25
2018-05-21T11:23:53.775Z,34.43
2018-05-21T11:26:35.312Z,33.25
2018-05-21T11:28:36.784Z,32.18
2018-05-21T11:30:38.262Z,32.18
2018-05-21T11:32:40.208Z,33.44
2018-05-21T11:34:41.780Z,32.59
2018-05-21T11:36:43.338Z,33.26
2018-05-21T11:38:44.877Z,32.49
2018-05-21T11:40:46.437Z,31.98
2018-05-21T11:42:48.035Z,31.98
2018-05-21T11:44:49.555Z,31.98
2018-05-21T11:46:51.318Z,33.44
2018-05-21T11:48:52.941Z,32.20
2018-05-21T11:50:54.537Z,31.01
2018-05-21T11:52:56.355Z,30.54
2018-05-21T11:54:58.296Z,31.11
2018-05-21T11:57:00.181Z,34.72
2018-05-21T11:59:02.020Z,30.82
2018-05-21T12:01:03.679Z,31.88
2018-05-21T12:03:05.221Z,32.28
2018-05-21T12:05:07.129Z,30.43
2018-05-21T12:07:08.723Z,30.14
2018-05-21T12:09:10.635Z,30.91
2018-05-21T12:11:12.286Z,30.71
2018-05-21T12:13:13.839Z,30.41
2018-05-21T12:15:15.449Z,30.80
2018-05-21T12:17:16.990Z,31.19
2018-05-21T12:19:18.570Z,31.87
2018-05-21T12:21:20.136Z,32.28
2018-05-21T12:23:21.797Z,34.32
2018-05-21T12:25:23.495Z,33.46
2018-05-21T12:27:25.042Z,30.35
2018-05-21T12:29:26.660Z,30.33
2018-05-21T12:31:28.585Z,31.40
2018-05-21T12:33:30.202Z,31.51
2018-05-21T12:35:31.995Z,33.17
2018-05-21T12:37:33.657Z,30.33
2018-05-21T12:39:35.260Z,30.74
2018-05-21T12:41:37.390Z,30.54
2018-05-21T12:43:39.192Z,31.03
2018-05-21T12:45:40.818Z,30.05
2018-05-21T12:47:42.672Z,30.93
2018-05-21T12:49:44.635Z,32.00
2018-05-21T12:51:46.467Z,33.07
2018-05-21T12:53:48.225Z,30.04
2018-05-21T12:55:49.779Z,30.44
2018-05-21T12:57:51.326Z,29.76
2018-05-21T12:59:52.970Z,30.54
2018-05-21T13:01:54.980Z,31.30
2018-05-21T13:03:56.706Z,31.60
2018-05-21T13:05:58.530Z,31.51
2018-05-21T13:08:00.175Z,33.26
2018-05-21T13:10:01.735Z,29.86
2018-05-21T13:12:03.284Z,29.86
2018-05-21T13:14:04.780Z,29.96
2018-05-21T13:16:06.332Z,29.46
2018-05-21T13:18:07.902Z,30.43
2018-05-21T13:20:09.530Z,30.25
2018-05-21T13:22:11.600Z,30.74
2018-05-21T13:24:13.610Z,33.26
2018-05-21T13:26:15.077Z,29.96
2018-05-21T13:28:16.824Z,30.72
2018-05-21T13:30:18.769Z,30.52
2018-05-21T13:32:20.668Z,31.81
2018-05-21T13:34:22.360Z,30.24
2018-05-21T13:36:24.173Z,30.62
2018-05-21T13:38:25.824Z,30.52
2018-05-21T13:40:27.442Z,30.33
2018-05-21T13:42:29.278Z,30.72
2018-05-21T13:44:31.153Z,30.91
2018-05-21T13:46:32.943Z,31.11
2018-05-21T13:48:34.881Z,32.08
2018-05-21T13:50:36.847Z,32.57
2018-05-21T13:52:38.607Z,31.11
2018-05-21T13:54:40.241Z,31.70
2018-05-21T13:56:41.965Z,30.62
2018-05-21T13:58:43.728Z,32.28
2018-05-21T14:00:45.550Z,31.70
2018-05-21T14:02:47.497Z,31.70
2018-05-21T14:04:49.234Z,32.18
2018-05-21T14:07:32.293Z,32.37
2018-05-21T14:09:34.447Z,32.68
2018-05-21T14:11:36.093Z,32.20
2018-05-21T14:13:37.716Z,32.08
2018-05-21T14:15:39.577Z,32.18
2018-05-21T14:17:41.542Z,31.30
2018-05-21T14:19:43.336Z,31.21
2018-05-21T14:21:44.929Z,32.18
2018-05-21T14:23:46.439Z,32.47
2018-05-21T14:26:29.015Z,33.75
2018-05-21T14:28:30.428Z,32.00
2018-05-21T14:30:31.864Z,31.30
2018-05-21T14:32:33.329Z,30.52
2018-05-21T14:34:35.003Z,31.30
2018-05-21T14:36:36.460Z,31.79
2018-05-21T14:38:37.991Z,31.40
2018-05-21T14:40:39.591Z,32.10
2018-05-21T14:42:41.583Z,33.07
2018-05-21T14:44:43.125Z,32.20
2018-05-21T14:46:44.579Z,30.43
2018-05-21T14:48:46.555Z,30.33
2018-05-21T14:50:48.692Z,30.82
2018-05-21T14:52:50.567Z,29.85
2018-05-21T14:54:52.171Z,29.46
2018-05-21T14:56:53.829Z,31.11
2018-05-21T14:58:55.741Z,31.11
2018-05-21T15:00:57.325Z,31.21
2018-05-21T15:02:58.882Z,31.40
2018-05-21T15:05:00.676Z,32.67
2018-05-21T15:07:02.229Z,31.11
2018-05-21T15:09:03.836Z,31.98
2018-05-21T15:11:05.352Z,31.01
2018-05-21T15:13:06.815Z,31.79
2018-05-21T15:15:08.283Z,31.88
2018-05-21T15:17:10.053Z,32.18
2018-05-21T15:19:12.151Z,30.91
2018-05-21T15:21:14.056Z,32.86
2018-05-21T15:23:15.878Z,31.30
2018-05-21T15:25:17.745Z,31.50
2018-05-21T15:27:19.569Z,31.50
2018-05-21T15:29:21.384Z,31.98
2018-05-21T15:31:23.222Z,32.08
2018-05-21T15:33:24.996Z,30.80
2018-05-21T15:35:26.736Z,32.07
2018-05-21T15:37:28.480Z,31.77
2018-05-21T15:39:30.053Z,32.07
2018-05-21T15:41:31.588Z,32.07
2018-05-21T15:43:33.232Z,32.65
2018-05-21T15:45:35.077Z,32.75
2018-05-21T15:47:36.861Z,32.07
2018-05-21T15:50:18.384Z,31.48
2018-05-21T15:52:20.321Z,32.45
2018-05-21T15:54:23.549Z,31.19
2018-05-21T15:56:25.113Z,31.47
2018-05-21T15:58:27.078Z,32.05
2018-05-21T16:00:28.909Z,31.97
2018-05-21T16:02:30.740Z,32.44
2018-05-21T16:04:32.295Z,33.41
2018-05-21T16:06:34.195Z,33.70
2018-05-21T16:08:35.818Z,33.90
2018-05-21T16:10:37.512Z,32.05
2018-05-21T16:12:39.062Z,32.82
2018-05-21T16:14:40.759Z,33.23
2018-05-21T16:16:42.634Z,32.84
2018-05-21T16:18:44.565Z,31.38
2018-05-21T16:20:46.308Z,33.14
2018-05-21T16:22:48.199Z,32.17
2018-05-21T16:24:50.238Z,32.64
2018-05-21T16:26:52.054Z,32.64
2018-05-21T16:29:35.264Z,31.66
2018-05-21T16:31:37.178Z,32.05
2018-05-21T16:33:38.801Z,31.45
2018-05-21T16:35:41.211Z,32.32
2018-05-21T16:37:42.873Z,33.20
2018-05-21T16:39:44.635Z,32.81
2018-05-21T16:41:46.815Z,31.74
2018-05-21T16:43:48.652Z,32.04
2018-05-21T16:45:50.960Z,31.57
2018-05-21T16:47:52.664Z,31.94
2018-05-21T16:49:54.541Z,32.81
2018-05-21T16:51:56.327Z,33.20
2018-05-21T16:53:59.078Z,33.29
2018-05-21T16:56:00.838Z,33.49
2018-05-21T16:58:03.157Z,34.08
2018-05-21T17:00:05.404Z,34.46
2018-05-21T17:02:07.309Z,34.75
2018-05-21T17:04:08.957Z,33.59
2018-05-21T17:06:10.812Z,34.08
2018-05-21T17:08:12.950Z,35.05
2018-05-21T17:10:14.579Z,34.46
2018-05-21T17:12:16.581Z,34.27
2018-05-21T17:14:18.140Z,34.08
2018-05-21T17:16:20.179Z,34.27
2018-05-21T17:18:22.110Z,35.24
2018-05-21T17:20:24.058Z,34.25
2018-05-21T17:22:25.578Z,35.22
2018-05-21T17:24:27.185Z,35.13
2018-05-21T17:26:29.230Z,35.51
2018-05-21T17:28:31.739Z,33.76
2018-05-21T17:30:34.220Z,33.96
2018-05-21T17:32:36.173Z,33.76
2018-05-21T17:34:37.974Z,34.64
2018-05-21T17:36:40.404Z,34.44
2018-05-21T17:38:42.216Z,36.38
2018-05-21T17:40:44.048Z,35.41
2018-05-21T17:42:46.208Z,34.44
2018-05-21T17:44:47.957Z,34.35
2018-05-21T17:46:49.520Z,34.23
2018-05-21T17:48:51.182Z,35.30
2018-05-21T17:50:52.910Z,34.81
2018-05-21T17:52:54.814Z,35.21
2018-05-21T17:54:57.215Z,34.99
2018-05-21T17:56:59.092Z,34.02
2018-05-21T17:59:00.955Z,35.09
2018-05-21T18:01:02.485Z,34.70
2018-05-21T18:03:04.072Z,35.48
2018-05-21T18:05:05.895Z,35.28
2018-05-21T18:07:07.460Z,35.67
2018-05-21T18:09:08.987Z,36.43
2018-05-21T18:11:11.529Z,35.07
2018-05-21T18:13:13.361Z,35.85
2018-05-21T18:15:15.552Z,35.36
2018-05-21T18:17:17.161Z,35.66
2018-05-21T18:19:18.837Z,35.46
2018-05-21T18:21:20.692Z,36.44
2018-05-21T18:23:22.313Z,35.17
2018-05-21T18:25:23.862Z,34.88
2018-05-21T18:27:25.414Z,35.25
2018-05-21T18:29:27.058Z,35.73
2018-05-21T18:31:28.760Z,35.54
2018-05-21T18:33:30.951Z,35.93
2018-05-21T18:35:32.819Z,36.22
2018-05-21T18:37:34.411Z,35.44
2018-05-21T18:39:37.014Z,36.02
2018-05-21T18:41:38.643Z,36.32
2018-05-21T18:43:41.090Z,36.12
2018-05-21T18:45:42.968Z,35.93
2018-05-21T18:47:44.530Z,35.91
2018-05-21T18:50:31.954Z,36.20
2018-05-21T18:52:33.472Z,35.23
2018-05-21T18:54:35.865Z,36.00
2018-05-21T18:56:37.424Z,36.20
2018-05-21T18:58:41.510Z,36.10
2018-05-21T19:00:43.481Z,36.40
2018-05-21T19:02:45.383Z,36.58
2018-05-21T19:04:47.020Z,36.68
2018-05-21T19:06:48.653Z,36.00
2018-05-21T19:09:34.542Z,36.30
2018-05-21T19:11:36.186Z,36.78
2018-05-21T19:13:37.804Z,36.49
2018-05-21T19:15:39.743Z,37.55
2018-05-21T19:17:41.461Z,37.63
2018-05-21T19:19:43.046Z,37.05
2018-05-21T19:21:44.541Z,37.92
2018-05-21T19:23:45.971Z,37.73
2018-05-21T19:25:47.398Z,37.13
2018-05-21T19:27:48.850Z,36.26
2018-05-21T19:29:50.290Z,36.26
2018-05-21T19:31:51.760Z,37.04
2018-05-21T19:33:53.235Z,37.04
2018-05-21T19:35:54.676Z,37.13
2018-05-21T19:37:56.168Z,37.23
2018-05-21T19:39:57.668Z,37.32
2018-05-21T19:41:59.200Z,35.95
2018-05-21T19:44:00.676Z,37.13
2018-05-21T19:46:02.144Z,37.21
2018-05-21T19:48:03.596Z,36.24
2018-05-21T19:50:05.054Z,36.44
2018-05-21T19:52:06.485Z,37.30
2018-05-21T19:54:07.918Z,36.53
2018-05-21T19:56:09.370Z,37.40
2018-05-21T19:58:11.000Z,37.40
2018-05-21T20:00:12.415Z,36.92
2018-05-21T20:02:13.988Z,37.40
2018-05-21T20:04:15.547Z,37.19
2018-05-21T20:06:16.992Z,37.30
2018-05-21T20:08:18.638Z,36.71
2018-05-21T20:10:20.079Z,37.00
2018-05-21T20:12:21.733Z,37.38
2018-05-21T20:14:23.361Z,37.21
2018-05-21T20:16:24.882Z,37.38
2018-05-21T20:18:26.322Z,37.38
2018-05-21T20:20:27.753Z,37.77
2018-05-21T20:22:29.286Z,37.58
2018-05-21T20:24:30.783Z,37.58
2018-05-21T20:26:32.310Z,37.48
2018-05-21T20:28:33.830Z,37.58
2018-05-21T20:30:35.400Z,38.35
2018-05-21T20:32:36.836Z,37.58
2018-05-21T20:34:38.318Z,38.16
2018-05-21T20:36:39.819Z,38.74
2018-05-21T20:38:41.336Z,39.39
2018-05-21T20:40:42.880Z,37.65
2018-05-21T20:42:44.374Z,38.23
2018-05-21T20:44:45.908Z,39.39
2018-05-21T20:46:47.692Z,38.43
2018-05-21T20:48:49.735Z,38.14
2018-05-21T20:50:51.272Z,37.75
2018-05-21T20:52:52.905Z,37.85
2018-05-21T20:54:54.703Z,38.04
2018-05-21T20:56:56.599Z,38.81
2018-05-21T20:58:58.120Z,38.04
2018-05-21T21:00:59.624Z,37.65
2018-05-21T21:03:01.142Z,37.85
2018-05-21T21:05:02.646Z,38.43
2018-05-21T21:07:04.139Z,38.43
2018-05-21T21:09:05.638Z,37.46
2018-05-21T21:11:07.188Z,38.41
2018-05-21T21:13:08.698Z,37.75
2018-05-21T21:15:10.232Z,37.54
2018-05-21T21:17:11.739Z,37.73
2018-05-21T21:19:13.604Z,38.31
2018-05-21T21:21:15.344Z,38.79
2018-05-21T21:23:17.215Z,38.51
2018-05-21T21:25:18.684Z,38.70
2018-05-21T21:27:20.482Z,38.51
2018-05-21T21:29:22.140Z,38.60
2018-05-21T21:31:23.831Z,38.60
2018-05-21T21:33:25.593Z,38.51
2018-05-21T21:35:27.310Z,37.83
2018-05-21T21:37:28.829Z,39.18
2018-05-21T21:39:30.630Z,39.09
2018-05-21T21:41:32.160Z,38.21
2018-05-21T21:43:33.657Z,39.06
2018-05-21T21:45:35.178Z,39.57
2018-05-21T21:47:36.698Z,38.79
2018-05-21T21:49:38.201Z,38.51
2018-05-21T21:51:39.829Z,38.60
2018-05-21T21:53:41.746Z,39.66
2018-05-21T21:55:43.325Z,39.16
2018-05-21T21:57:44.852Z,39.47
2018-05-21T22:00:27.273Z,39.47
2018-05-21T22:02:28.705Z,39.16
2018-05-21T22:04:30.334Z,39.26
2018-05-21T22:06:31.768Z,39.09
2018-05-21T22:08:33.195Z,39.94
2018-05-21T22:10:34.643Z,39.64
2018-05-21T22:12:36.062Z,39.84
2018-05-21T22:14:37.485Z,40.03
2018-05-21T22:16:38.923Z,39.74
2018-05-21T22:18:40.371Z,40.90
2018-05-21T22:20:41.784Z,40.61
2018-05-21T22:22:43.276Z,40.03
2018-05-21T22:24:44.767Z,40.99
2018-05-21T22:26:46.309Z,40.70
2018-05-21T22:28:47.810Z,40.12
2018-05-21T22:30:49.330Z,40.32
2018-05-21T22:32:50.853Z,40.32
2018-05-21T22:34:52.545Z,40.42
2018-05-21T22:36:54.084Z,40.22
2018-05-21T22:39:39.211Z,41.77
2018-05-21T22:41:40.631Z,40.99
2018-05-21T22:43:42.110Z,41.09
2018-05-21T22:45:43.599Z,40.32
2018-05-21T22:47:45.240Z,41.96
2018-05-21T22:49:47.632Z,42.05
2018-05-21T22:51:49.704Z,42.23
2018-05-21T22:53:51.970Z,42.54
2018-05-21T22:55:53.736Z,42.42
2018-05-21T22:57:55.842Z,41.27
2018-05-21T22:59:58.058Z,41.84
2018-05-21T23:01:59.683Z,42.13
2018-05-21T23:04:01.305Z,42.35
2018-05-21T23:06:03.310Z,41.75
2018-05-21T23:08:05.039Z,41.94
2018-05-21T23:10:06.694Z,42.52
2018-05-21T23:12:09.090Z,42.13
2018-05-21T23:14:10.821Z,42.80
2018-05-21T23:16:12.900Z,42.42
2018-05-21T23:18:14.426Z,42.71
2018-05-21T23:20:15.973Z,42.80
2018-05-21T23:22:18.143Z,43.19
2018-05-21T23:24:19.647Z,43.48
2018-05-21T23:26:21.154Z,43.55
2018-05-21T23:28:22.811Z,43.38
2018-05-21T23:30:24.453Z,43.19
2018-05-21T23:32:27.030Z,43.27
2018-05-21T23:34:28.690Z,43.65
2018-05-21T23:36:30.411Z,43.75
2018-05-21T23:38:32.675Z,44.52
2018-05-21T23:40:34.340Z,44.23
2018-05-21T23:42:36.752Z,44.52
2018-05-21T23:44:38.308Z,44.81
2018-05-21T23:46:40.837Z,44.81
2018-05-21T23:48:42.885Z,44.90
2018-05-21T23:50:45.006Z,44.52
2018-05-21T23:52:46.523Z,43.17
2018-05-21T23:54:48.041Z,43.55
2018-05-21T23:56:50.528Z,44.52
2018-05-21T23:58:52.316Z,44.62
